Terminal Aerodrome Forecast
Issued by NWS Jackson, MS

Home | Current Version | Previous Version | Text Only | Print | Product List | Glossary On
Versions: 1 2 3 4 5 6 7 8 9 10 11 12 13 14 15 16 17 18 19 20 21 22 23 24 25 26 27 28 29 30 31 32
000
FTUS44 KJAN 051737
TAFGWO
TAF
KGWO 051737Z 0518/0618 20006KT P6SM -SHRA SCT015 BKN050
     FM052200 20008KT P6SM FEW030 BKN150
     FM060900 19004KT 5SM BR BKN040
     FM061500 21008KT P6SM SCT040=

USA.gov is the U.S. government's official web portal to all federal, state and local government web resources and services.